sensor_id;sensor_type;location;lat;lon;timestamp;temperature;humidity
68354;DHT22;55274;43.060;25.618;2023-02-22T00:00:19;5.90;85.20
68354;DHT22;55274;43.060;25.618;2023-02-22T00:02:50;5.80;85.40
68354;DHT22;55274;43.060;25.618;2023-02-22T00:05:18;5.80;85.60
68354;DHT22;55274;43.060;25.618;2023-02-22T00:07:49;5.70;85.70
68354;DHT22;55274;43.060;25.618;2023-02-22T00:10:16;5.70;85.70
68354;DHT22;55274;43.060;25.618;2023-02-22T00:12:46;5.70;85.80
68354;DHT22;55274;43.060;25.618;2023-02-22T00:15:17;5.70;85.80
68354;DHT22;55274;43.060;25.618;2023-02-22T00:17:44;5.60;85.80
68354;DHT22;55274;43.060;25.618;2023-02-22T00:20:11;5.60;86.30
68354;DHT22;55274;43.060;25.618;2023-02-22T00:22:41;5.50;87.00
68354;DHT22;55274;43.060;25.618;2023-02-22T00:25:08;5.40;87.70
68354;DHT22;55274;43.060;25.618;2023-02-22T00:27:35;5.40;87.90
68354;DHT22;55274;43.060;25.618;2023-02-22T00:30:02;5.40;88.00
68354;DHT22;55274;43.060;25.618;2023-02-22T00:32:28;5.40;87.70
68354;DHT22;55274;43.060;25.618;2023-02-22T00:34:53;5.30;88.10
68354;DHT22;55274;43.060;25.618;2023-02-22T00:37:20;5.40;88.70
68354;DHT22;55274;43.060;25.618;2023-02-22T00:39:47;5.40;89.20
68354;DHT22;55274;43.060;25.618;2023-02-22T00:42:14;5.40;88.90
68354;DHT22;55274;43.060;25.618;2023-02-22T00:44:40;5.30;89.10
68354;DHT22;55274;43.060;25.618;2023-02-22T00:47:06;5.20;89.60
68354;DHT22;55274;43.060;25.618;2023-02-22T00:49:31;5.20;90.10
68354;DHT22;55274;43.060;25.618;2023-02-22T00:51:57;5.10;90.70
68354;DHT22;55274;43.060;25.618;2023-02-22T00:54:24;5.10;91.20
68354;DHT22;55274;43.060;25.618;2023-02-22T00:56:50;5.10;91.50
68354;DHT22;55274;43.060;25.618;2023-02-22T00:59:16;5.10;92.60
68354;DHT22;55274;43.060;25.618;2023-02-22T01:01:42;5.10;91.90
68354;DHT22;55274;43.060;25.618;2023-02-22T01:04:08;5.10;92.00
68354;DHT22;55274;43.060;25.618;2023-02-22T01:06:34;5.10;92.40
68354;DHT22;55274;43.060;25.618;2023-02-22T01:09:01;5.10;91.90
68354;DHT22;55274;43.060;25.618;2023-02-22T01:11:27;5.00;92.50
68354;DHT22;55274;43.060;25.618;2023-02-22T01:13:54;5.00;93.20
68354;DHT22;55274;43.060;25.618;2023-02-22T01:16:20;4.90;93.40
68354;DHT22;55274;43.060;25.618;2023-02-22T01:18:46;4.80;93.80
68354;DHT22;55274;43.060;25.618;2023-02-22T01:21:12;4.80;94.20
68354;DHT22;55274;43.060;25.618;2023-02-22T01:23:37;4.80;94.30
68354;DHT22;55274;43.060;25.618;2023-02-22T01:26:04;4.80;95.20
68354;DHT22;55274;43.060;25.618;2023-02-22T01:28:33;4.80;95.20
68354;DHT22;55274;43.060;25.618;2023-02-22T01:30:59;4.70;95.00
68354;DHT22;55274;43.060;25.618;2023-02-22T01:33:26;4.70;95.10
68354;DHT22;55274;43.060;25.618;2023-02-22T01:35:52;4.70;93.90
68354;DHT22;55274;43.060;25.618;2023-02-22T01:38:18;4.70;95.20
68354;DHT22;55274;43.060;25.618;2023-02-22T01:40:47;4.60;95.90
68354;DHT22;55274;43.060;25.618;2023-02-22T01:43:29;4.50;96.40
68354;DHT22;55274;43.060;25.618;2023-02-22T01:46:16;4.50;96.60
68354;DHT22;55274;43.060;25.618;2023-02-22T01:48:48;4.50;96.80
68354;DHT22;55274;43.060;25.618;2023-02-22T01:51:18;4.50;97.40
68354;DHT22;55274;43.060;25.618;2023-02-22T01:53:49;4.40;97.40
68354;DHT22;55274;43.060;25.618;2023-02-22T01:56:17;4.40;97.80
68354;DHT22;55274;43.060;25.618;2023-02-22T01:58:48;4.40;97.90
68354;DHT22;55274;43.060;25.618;2023-02-22T02:01:16;4.40;97.80
68354;DHT22;55274;43.060;25.618;2023-02-22T02:03:43;4.40;98.60
68354;DHT22;55274;43.060;25.618;2023-02-22T02:06:12;4.30;98.70
68354;DHT22;55274;43.060;25.618;2023-02-22T02:11:25;4.30;98.40
68354;DHT22;55274;43.060;25.618;2023-02-22T02:13:54;4.30;98.70
68354;DHT22;55274;43.060;25.618;2023-02-22T02:16:25;4.30;99.00
68354;DHT22;55274;43.060;25.618;2023-02-22T02:18:52;4.20;99.00
68354;DHT22;55274;43.060;25.618;2023-02-22T02:21:39;4.20;99.00
68354;DHT22;55274;43.060;25.618;2023-02-22T02:38:20;4.10;99.90
68354;DHT22;55274;43.060;25.618;2023-02-22T02:41:12;4.00;99.90
68354;DHT22;55274;43.060;25.618;2023-02-22T02:44:34;4.00;99.90
68354;DHT22;55274;43.060;25.618;2023-02-22T02:46:54;3.90;99.90
68354;DHT22;55274;43.060;25.618;2023-02-22T02:49:30;3.90;99.90
68354;DHT22;55274;43.060;25.618;2023-02-22T02:51:59;4.00;99.90
68354;DHT22;55274;43.060;25.618;2023-02-22T02:54:25;4.00;99.90
68354;DHT22;55274;43.060;25.618;2023-02-22T02:56:52;4.00;99.90
68354;DHT22;55274;43.060;25.618;2023-02-22T03:05:10;3.90;99.90
68354;DHT22;55274;43.060;25.618;2023-02-22T03:07:48;3.80;99.90
68354;DHT22;55274;43.060;25.618;2023-02-22T03:13:42;3.80;99.90
68354;DHT22;55274;43.060;25.618;2023-02-22T03:27:13;3.80;99.90
68354;DHT22;55274;43.060;25.618;2023-02-22T03:29:43;3.80;99.90
68354;DHT22;55274;43.060;25.618;2023-02-22T03:32:15;3.80;99.90
68354;DHT22;55274;43.060;25.618;2023-02-22T03:34:48;3.70;99.90
68354;DHT22;55274;43.060;25.618;2023-02-22T03:37:20;3.70;99.90
68354;DHT22;55274;43.060;25.618;2023-02-22T03:39:51;3.80;99.90
68354;DHT22;55274;43.060;25.618;2023-02-22T03:42:25;3.70;99.90
68354;DHT22;55274;43.060;25.618;2023-02-22T03:44:53;3.70;99.90
68354;DHT22;55274;43.060;25.618;2023-02-22T03:47:30;3.70;99.90
68354;DHT22;55274;43.060;25.618;2023-02-22T03:50:25;3.60;99.90
68354;DHT22;55274;43.060;25.618;2023-02-22T03:52:51;3.70;99.90
68354;DHT22;55274;43.060;25.618;2023-02-22T03:55:17;3.70;99.90
68354;DHT22;55274;43.060;25.618;2023-02-22T03:57:52;3.70;99.90
68354;DHT22;55274;43.060;25.618;2023-02-22T04:00:22;3.60;99.90
68354;DHT22;55274;43.060;25.618;2023-02-22T04:02:49;3.60;99.90
68354;DHT22;55274;43.060;25.618;2023-02-22T04:05:15;3.60;99.90
68354;DHT22;55274;43.060;25.618;2023-02-22T04:07:41;3.70;99.90
68354;DHT22;55274;43.060;25.618;2023-02-22T04:10:08;3.60;99.90
68354;DHT22;55274;43.060;25.618;2023-02-22T04:12:38;3.60;99.90
68354;DHT22;55274;43.060;25.618;2023-02-22T04:15:04;3.50;99.90
68354;DHT22;55274;43.060;25.618;2023-02-22T04:17:32;3.50;99.90
68354;DHT22;55274;43.060;25.618;2023-02-22T04:19:58;3.50;99.90
68354;DHT22;55274;43.060;25.618;2023-02-22T04:22:23;3.50;99.90
68354;DHT22;55274;43.060;25.618;2023-02-22T04:24:49;3.50;99.90
68354;DHT22;55274;43.060;25.618;2023-02-22T04:27:15;3.50;99.90
68354;DHT22;55274;43.060;25.618;2023-02-22T04:29:41;3.50;99.90
68354;DHT22;55274;43.060;25.618;2023-02-22T04:32:07;3.50;99.90
68354;DHT22;55274;43.060;25.618;2023-02-22T04:34:33;3.60;99.90
68354;DHT22;55274;43.060;25.618;2023-02-22T04:36:59;3.60;99.90
68354;DHT22;55274;43.060;25.618;2023-02-22T04:39:24;3.60;99.90
68354;DHT22;55274;43.060;25.618;2023-02-22T04:41:50;3.50;99.90
68354;DHT22;55274;43.060;25.618;2023-02-22T04:44:16;3.50;99.90
68354;DHT22;55274;43.060;25.618;2023-02-22T04:46:42;3.40;99.90
68354;DHT22;55274;43.060;25.618;2023-02-22T04:49:07;3.40;99.90
68354;DHT22;55274;43.060;25.618;2023-02-22T04:51:33;3.40;99.90
68354;DHT22;55274;43.060;25.618;2023-02-22T04:54:01;3.30;99.90
68354;DHT22;55274;43.060;25.618;2023-02-22T04:56:26;3.30;99.90
68354;DHT22;55274;43.060;25.618;2023-02-22T04:58:52;3.30;99.90
68354;DHT22;55274;43.060;25.618;2023-02-22T05:01:18;3.30;99.90
68354;DHT22;55274;43.060;25.618;2023-02-22T05:03:44;3.30;99.90
68354;DHT22;55274;43.060;25.618;2023-02-22T05:06:10;3.30;99.90
68354;DHT22;55274;43.060;25.618;2023-02-22T05:08:37;3.30;99.90
68354;DHT22;55274;43.060;25.618;2023-02-22T05:11:03;3.20;99.90
68354;DHT22;55274;43.060;25.618;2023-02-22T05:13:30;3.20;99.90
68354;DHT22;55274;43.060;25.618;2023-02-22T05:15:56;3.30;99.90
68354;DHT22;55274;43.060;25.618;2023-02-22T05:18:22;3.30;99.90
68354;DHT22;55274;43.060;25.618;2023-02-22T05:20:47;3.30;99.90
68354;DHT22;55274;43.060;25.618;2023-02-22T05:23:13;3.30;99.90
68354;DHT22;55274;43.060;25.618;2023-02-22T05:25:40;3.30;99.90
68354;DHT22;55274;43.060;25.618;2023-02-22T05:28:12;3.30;99.90
68354;DHT22;55274;43.060;25.618;2023-02-22T05:30:38;3.30;99.90
68354;DHT22;55274;43.060;25.618;2023-02-22T05:33:04;3.30;99.90
68354;DHT22;55274;43.060;25.618;2023-02-22T05:35:30;3.30;99.90
68354;DHT22;55274;43.060;25.618;2023-02-22T05:37:56;3.40;99.90
68354;DHT22;55274;43.060;25.618;2023-02-22T05:40:25;3.40;99.90
68354;DHT22;55274;43.060;25.618;2023-02-22T05:42:52;3.40;99.90
68354;DHT22;55274;43.060;25.618;2023-02-22T05:45:20;3.50;99.90
68354;DHT22;55274;43.060;25.618;2023-02-22T05:47:46;3.60;99.90
68354;DHT22;55274;43.060;25.618;2023-02-22T05:50:13;3.70;99.90
68354;DHT22;55274;43.060;25.618;2023-02-22T05:52:40;3.60;99.90
68354;DHT22;55274;43.060;25.618;2023-02-22T05:55:07;3.70;99.90
68354;DHT22;55274;43.060;25.618;2023-02-22T05:57:33;3.80;99.90
68354;DHT22;55274;43.060;25.618;2023-02-22T05:59:59;3.90;99.90
68354;DHT22;55274;43.060;25.618;2023-02-22T06:02:25;4.00;99.90
68354;DHT22;55274;43.060;25.618;2023-02-22T06:04:51;4.10;99.90
68354;DHT22;55274;43.060;25.618;2023-02-22T06:07:17;4.20;99.90
68354;DHT22;55274;43.060;25.618;2023-02-22T06:09:43;4.40;99.90
68354;DHT22;55274;43.060;25.618;2023-02-22T06:12:09;4.50;99.90
68354;DHT22;55274;43.060;25.618;2023-02-22T06:14:35;4.90;99.90
68354;DHT22;55274;43.060;25.618;2023-02-22T06:17:01;5.80;99.90
68354;DHT22;55274;43.060;25.618;2023-02-22T06:19:29;6.70;99.90
68354;DHT22;55274;43.060;25.618;2023-02-22T06:21:56;7.50;99.90
68354;DHT22;55274;43.060;25.618;2023-02-22T06:24:24;8.50;99.90
68354;DHT22;55274;43.060;25.618;2023-02-22T06:27:01;9.40;98.20
68354;DHT22;55274;43.060;25.618;2023-02-22T06:29:27;10.20;93.30
68354;DHT22;55274;43.060;25.618;2023-02-22T06:31:54;11.00;86.60
68354;DHT22;55274;43.060;25.618;2023-02-22T06:34:20;11.40;82.50
68354;DHT22;55274;43.060;25.618;2023-02-22T06:36:49;11.70;80.60
68354;DHT22;55274;43.060;25.618;2023-02-22T06:39:16;11.60;78.60
68354;DHT22;55274;43.060;25.618;2023-02-22T06:41:45;11.90;78.90
68354;DHT22;55274;43.060;25.618;2023-02-22T06:44:12;12.10;76.90
68354;DHT22;55274;43.060;25.618;2023-02-22T06:46:38;11.90;76.40
68354;DHT22;55274;43.060;25.618;2023-02-22T06:49:05;12.00;77.50
68354;DHT22;55274;43.060;25.618;2023-02-22T06:51:35;12.20;76.60
68354;DHT22;55274;43.060;25.618;2023-02-22T06:54:01;12.20;76.60
68354;DHT22;55274;43.060;25.618;2023-02-22T06:56:27;12.40;75.50
68354;DHT22;55274;43.060;25.618;2023-02-22T06:58:53;12.60;75.40
68354;DHT22;55274;43.060;25.618;2023-02-22T07:01:19;12.70;74.20
68354;DHT22;55274;43.060;25.618;2023-02-22T07:03:44;12.90;74.00
68354;DHT22;55274;43.060;25.618;2023-02-22T07:06:10;13.10;73.00
68354;DHT22;55274;43.060;25.618;2023-02-22T07:08:36;13.40;71.50
68354;DHT22;55274;43.060;25.618;2023-02-22T07:11:03;13.70;70.10
68354;DHT22;55274;43.060;25.618;2023-02-22T07:13:29;14.00;70.00
68354;DHT22;55274;43.060;25.618;2023-02-22T07:15:54;14.20;70.10
68354;DHT22;55274;43.060;25.618;2023-02-22T07:18:20;14.30;69.60
68354;DHT22;55274;43.060;25.618;2023-02-22T07:20:46;14.60;68.30
68354;DHT22;55274;43.060;25.618;2023-02-22T07:23:14;14.80;67.50
68354;DHT22;55274;43.060;25.618;2023-02-22T07:25:40;15.20;66.50
68354;DHT22;55274;43.060;25.618;2023-02-22T07:28:06;15.30;64.50
68354;DHT22;55274;43.060;25.618;2023-02-22T07:30:32;15.70;64.90
68354;DHT22;55274;43.060;25.618;2023-02-22T07:33:07;16.10;62.60
68354;DHT22;55274;43.060;25.618;2023-02-22T07:35:35;16.50;61.10
68354;DHT22;55274;43.060;25.618;2023-02-22T07:38:02;16.70;59.70
68354;DHT22;55274;43.060;25.618;2023-02-22T07:40:28;17.00;57.10
68354;DHT22;55274;43.060;25.618;2023-02-22T07:45:24;17.20;56.10
68354;DHT22;55274;43.060;25.618;2023-02-22T07:47:50;17.40;56.00
68354;DHT22;55274;43.060;25.618;2023-02-22T07:50:17;17.50;55.20
68354;DHT22;55274;43.060;25.618;2023-02-22T07:52:48;17.60;54.80
68354;DHT22;55274;43.060;25.618;2023-02-22T07:55:17;17.70;54.30
68354;DHT22;55274;43.060;25.618;2023-02-22T07:57:45;17.70;53.80
68354;DHT22;55274;43.060;25.618;2023-02-22T08:00:13;17.80;53.50
68354;DHT22;55274;43.060;25.618;2023-02-22T08:02:40;17.90;53.10
68354;DHT22;55274;43.060;25.618;2023-02-22T08:05:07;18.20;53.20
68354;DHT22;55274;43.060;25.618;2023-02-22T08:07:37;18.40;52.10
68354;DHT22;55274;43.060;25.618;2023-02-22T08:10:05;18.50;51.50
68354;DHT22;55274;43.060;25.618;2023-02-22T08:12:36;18.50;51.50
68354;DHT22;55274;43.060;25.618;2023-02-22T08:15:04;18.80;51.30
68354;DHT22;55274;43.060;25.618;2023-02-22T08:17:30;19.10;50.60
68354;DHT22;55274;43.060;25.618;2023-02-22T08:19:56;19.10;50.10
68354;DHT22;55274;43.060;25.618;2023-02-22T08:22:22;19.20;49.70
68354;DHT22;55274;43.060;25.618;2023-02-22T08:24:48;19.40;49.90
68354;DHT22;55274;43.060;25.618;2023-02-22T08:27:23;19.40;49.00
68354;DHT22;55274;43.060;25.618;2023-02-22T08:29:50;19.80;49.30
68354;DHT22;55274;43.060;25.618;2023-02-22T08:32:16;19.90;48.60
68354;DHT22;55274;43.060;25.618;2023-02-22T08:34:43;19.90;48.20
68354;DHT22;55274;43.060;25.618;2023-02-22T08:37:09;20.10;48.10
68354;DHT22;55274;43.060;25.618;2023-02-22T08:39:35;20.10;47.30
68354;DHT22;55274;43.060;25.618;2023-02-22T08:42:01;20.20;47.50
68354;DHT22;55274;43.060;25.618;2023-02-22T08:44:27;20.30;47.50
68354;DHT22;55274;43.060;25.618;2023-02-22T08:46:52;20.40;47.50
68354;DHT22;55274;43.060;25.618;2023-02-22T08:49:20;20.40;47.00
68354;DHT22;55274;43.060;25.618;2023-02-22T08:51:45;20.30;47.10
68354;DHT22;55274;43.060;25.618;2023-02-22T08:54:12;20.20;47.00
68354;DHT22;55274;43.060;25.618;2023-02-22T08:56:37;20.30;47.00
68354;DHT22;55274;43.060;25.618;2023-02-22T08:59:03;20.40;46.80
68354;DHT22;55274;43.060;25.618;2023-02-22T09:01:29;20.50;47.00
68354;DHT22;55274;43.060;25.618;2023-02-22T09:03:57;20.40;46.30
68354;DHT22;55274;43.060;25.618;2023-02-22T09:06:23;20.40;46.80
68354;DHT22;55274;43.060;25.618;2023-02-22T09:08:49;20.60;46.40
68354;DHT22;55274;43.060;25.618;2023-02-22T09:11:14;20.50;46.70
68354;DHT22;55274;43.060;25.618;2023-02-22T09:13:40;20.60;46.50
68354;DHT22;55274;43.060;25.618;2023-02-22T09:16:06;20.70;46.20
68354;DHT22;55274;43.060;25.618;2023-02-22T09:18:32;20.70;46.10
68354;DHT22;55274;43.060;25.618;2023-02-22T09:20:57;20.80;45.80
68354;DHT22;55274;43.060;25.618;2023-02-22T09:23:24;20.90;45.80
68354;DHT22;55274;43.060;25.618;2023-02-22T09:25:52;21.10;45.20
68354;DHT22;55274;43.060;25.618;2023-02-22T09:28:17;21.20;45.10
68354;DHT22;55274;43.060;25.618;2023-02-22T09:30:43;21.40;45.20
68354;DHT22;55274;43.060;25.618;2023-02-22T09:33:15;21.50;44.10
68354;DHT22;55274;43.060;25.618;2023-02-22T09:35:42;21.70;44.70
68354;DHT22;55274;43.060;25.618;2023-02-22T09:38:15;21.90;44.60
68354;DHT22;55274;43.060;25.618;2023-02-22T09:40:49;21.80;43.90
68354;DHT22;55274;43.060;25.618;2023-02-22T09:43:38;21.80;43.60
68354;DHT22;55274;43.060;25.618;2023-02-22T09:49:04;21.60;43.70
68354;DHT22;55274;43.060;25.618;2023-02-22T09:51:44;21.80;43.90
68354;DHT22;55274;43.060;25.618;2023-02-22T09:54:28;22.10;43.50
68354;DHT22;55274;43.060;25.618;2023-02-22T09:57:04;22.00;43.40
68354;DHT22;55274;43.060;25.618;2023-02-22T09:59:37;21.80;43.20
68354;DHT22;55274;43.060;25.618;2023-02-22T10:02:31;21.70;43.60
68354;DHT22;55274;43.060;25.618;2023-02-22T10:04:59;21.90;43.10
68354;DHT22;55274;43.060;25.618;2023-02-22T10:07:44;22.10;43.60
68354;DHT22;55274;43.060;25.618;2023-02-22T10:10:17;22.20;42.10
68354;DHT22;55274;43.060;25.618;2023-02-22T10:20:52;22.10;41.90
68354;DHT22;55274;43.060;25.618;2023-02-22T10:23:32;22.30;42.10
68354;DHT22;55274;43.060;25.618;2023-02-22T10:26:15;22.20;41.30
68354;DHT22;55274;43.060;25.618;2023-02-22T10:29:39;22.10;41.80
68354;DHT22;55274;43.060;25.618;2023-02-22T10:31:50;21.90;41.70
68354;DHT22;55274;43.060;25.618;2023-02-22T10:34:23;22.20;41.70
68354;DHT22;55274;43.060;25.618;2023-02-22T10:36:55;22.30;41.90
68354;DHT22;55274;43.060;25.618;2023-02-22T10:39:33;22.40;42.10
68354;DHT22;55274;43.060;25.618;2023-02-22T10:42:06;22.20;40.60
68354;DHT22;55274;43.060;25.618;2023-02-22T10:44:35;22.00;41.00
68354;DHT22;55274;43.060;25.618;2023-02-22T10:47:04;22.00;41.10
68354;DHT22;55274;43.060;25.618;2023-02-22T10:49:41;22.00;41.30
68354;DHT22;55274;43.060;25.618;2023-02-22T10:52:32;22.20;41.20
68354;DHT22;55274;43.060;25.618;2023-02-22T10:54:59;22.00;40.70
68354;DHT22;55274;43.060;25.618;2023-02-22T10:57:28;22.00;41.10
68354;DHT22;55274;43.060;25.618;2023-02-22T10:59:56;22.20;41.30
68354;DHT22;55274;43.060;25.618;2023-02-22T11:02:30;22.30;41.10
68354;DHT22;55274;43.060;25.618;2023-02-22T11:04:59;21.90;40.90
68354;DHT22;55274;43.060;25.618;2023-02-22T11:07:33;22.00;41.20
68354;DHT22;55274;43.060;25.618;2023-02-22T11:10:05;22.00;41.20
68354;DHT22;55274;43.060;25.618;2023-02-22T11:12:37;22.00;41.40
68354;DHT22;55274;43.060;25.618;2023-02-22T11:17:42;22.00;41.30
68354;DHT22;55274;43.060;25.618;2023-02-22T11:20:18;21.80;40.90
68354;DHT22;55274;43.060;25.618;2023-02-22T11:22:54;21.60;41.30
68354;DHT22;55274;43.060;25.618;2023-02-22T11:25:26;21.70;42.00
68354;DHT22;55274;43.060;25.618;2023-02-22T11:27:53;21.60;41.80
68354;DHT22;55274;43.060;25.618;2023-02-22T11:30:31;21.80;42.50
68354;DHT22;55274;43.060;25.618;2023-02-22T11:38:18;21.80;42.60
68354;DHT22;55274;43.060;25.618;2023-02-22T11:40:46;21.90;42.30
68354;DHT22;55274;43.060;25.618;2023-02-22T11:43:17;21.80;42.00
68354;DHT22;55274;43.060;25.618;2023-02-22T11:48:21;21.60;42.40
68354;DHT22;55274;43.060;25.618;2023-02-22T11:50:54;21.50;42.60
68354;DHT22;55274;43.060;25.618;2023-02-22T11:53:46;21.30;43.00
68354;DHT22;55274;43.060;25.618;2023-02-22T11:56:47;21.30;43.70
68354;DHT22;55274;43.060;25.618;2023-02-22T11:59:37;21.20;43.20
68354;DHT22;55274;43.060;25.618;2023-02-22T12:09:11;21.40;43.80
68354;DHT22;55274;43.060;25.618;2023-02-22T12:17:04;21.00;44.50
68354;DHT22;55274;43.060;25.618;2023-02-22T12:19:36;20.90;45.20
68354;DHT22;55274;43.060;25.618;2023-02-22T12:22:17;20.80;45.10
68354;DHT22;55274;43.060;25.618;2023-02-22T12:25:20;20.80;45.00
68354;DHT22;55274;43.060;25.618;2023-02-22T12:28:02;20.80;46.00
68354;DHT22;55274;43.060;25.618;2023-02-22T12:30:30;20.80;45.50
68354;DHT22;55274;43.060;25.618;2023-02-22T12:33:10;20.80;45.20
68354;DHT22;55274;43.060;25.618;2023-02-22T12:35:43;20.70;45.60
68354;DHT22;55274;43.060;25.618;2023-02-22T12:38:23;20.50;47.30
68354;DHT22;55274;43.060;25.618;2023-02-22T12:41:07;20.50;46.60
68354;DHT22;55274;43.060;25.618;2023-02-22T12:43:40;20.50;46.60
68354;DHT22;55274;43.060;25.618;2023-02-22T12:46:33;20.40;46.60
68354;DHT22;55274;43.060;25.618;2023-02-22T12:59:28;20.30;47.60
68354;DHT22;55274;43.060;25.618;2023-02-22T13:02:11;20.20;46.80
68354;DHT22;55274;43.060;25.618;2023-02-22T13:04:40;20.10;48.20
68354;DHT22;55274;43.060;25.618;2023-02-22T13:16:36;20.10;48.10
68354;DHT22;55274;43.060;25.618;2023-02-22T13:19:20;19.90;49.20
68354;DHT22;55274;43.060;25.618;2023-02-22T13:21:58;19.80;48.70
68354;DHT22;55274;43.060;25.618;2023-02-22T13:24:54;19.90;48.50
68354;DHT22;55274;43.060;25.618;2023-02-22T13:27:46;19.80;48.30
68354;DHT22;55274;43.060;25.618;2023-02-22T13:30:38;19.70;48.00
68354;DHT22;55274;43.060;25.618;2023-02-22T13:33:21;19.60;49.10
68354;DHT22;55274;43.060;25.618;2023-02-22T13:35:53;19.60;49.50
68354;DHT22;55274;43.060;25.618;2023-02-22T13:38:52;19.60;49.20
68354;DHT22;55274;43.060;25.618;2023-02-22T13:52:27;19.30;49.80
68354;DHT22;55274;43.060;25.618;2023-02-22T13:54:58;19.20;49.90
68354;DHT22;55274;43.060;25.618;2023-02-22T13:57:32;19.20;49.50
68354;DHT22;55274;43.060;25.618;2023-02-22T14:00:22;19.20;49.80
68354;DHT22;55274;43.060;25.618;2023-02-22T14:10:54;18.90;50.50
68354;DHT22;55274;43.060;25.618;2023-02-22T14:13:23;18.90;51.00
68354;DHT22;55274;43.060;25.618;2023-02-22T14:21:10;18.80;51.40
68354;DHT22;55274;43.060;25.618;2023-02-22T14:23:40;18.80;51.30
68354;DHT22;55274;43.060;25.618;2023-02-22T14:26:30;18.70;51.70
68354;DHT22;55274;43.060;25.618;2023-02-22T14:34:17;18.60;51.50
68354;DHT22;55274;43.060;25.618;2023-02-22T14:39:23;18.40;52.00
68354;DHT22;55274;43.060;25.618;2023-02-22T14:42:29;18.30;52.10
68354;DHT22;55274;43.060;25.618;2023-02-22T14:47:47;18.30;52.40
68354;DHT22;55274;43.060;25.618;2023-02-22T14:50:24;18.20;52.20
68354;DHT22;55274;43.060;25.618;2023-02-22T14:52:59;18.10;52.70
68354;DHT22;55274;43.060;25.618;2023-02-22T14:55:26;18.00;52.80
68354;DHT22;55274;43.060;25.618;2023-02-22T15:00:42;17.90;53.80
68354;DHT22;55274;43.060;25.618;2023-02-22T15:03:36;17.80;54.00
68354;DHT22;55274;43.060;25.618;2023-02-22T15:08:41;17.70;54.30
68354;DHT22;55274;43.060;25.618;2023-02-22T15:11:24;17.60;54.40
68354;DHT22;55274;43.060;25.618;2023-02-22T15:13:53;17.60;54.50
68354;DHT22;55274;43.060;25.618;2023-02-22T15:16:20;17.50;55.10
68354;DHT22;55274;43.060;25.618;2023-02-22T15:18:51;17.40;55.20
68354;DHT22;55274;43.060;25.618;2023-02-22T15:21:26;17.40;55.30
68354;DHT22;55274;43.060;25.618;2023-02-22T15:23:59;17.30;55.90
68354;DHT22;55274;43.060;25.618;2023-02-22T15:26:33;17.20;55.80
68354;DHT22;55274;43.060;25.618;2023-02-22T15:29:01;17.10;55.60
68354;DHT22;55274;43.060;25.618;2023-02-22T15:31:36;17.10;55.60
68354;DHT22;55274;43.060;25.618;2023-02-22T15:36:35;16.90;56.20
68354;DHT22;55274;43.060;25.618;2023-02-22T15:39:01;16.80;55.70
68354;DHT22;55274;43.060;25.618;2023-02-22T15:41:32;16.70;56.30
68354;DHT22;55274;43.060;25.618;2023-02-22T15:44:02;16.70;56.10
68354;DHT22;55274;43.060;25.618;2023-02-22T15:46:29;16.60;56.70
68354;DHT22;55274;43.060;25.618;2023-02-22T15:49:06;16.50;56.90
68354;DHT22;55274;43.060;25.618;2023-02-22T15:51:33;16.30;56.90
68354;DHT22;55274;43.060;25.618;2023-02-22T15:54:00;16.20;56.60
68354;DHT22;55274;43.060;25.618;2023-02-22T15:56:29;16.20;57.30
68354;DHT22;55274;43.060;25.618;2023-02-22T15:59:09;16.00;58.30
68354;DHT22;55274;43.060;25.618;2023-02-22T16:01:41;15.90;59.90
68354;DHT22;55274;43.060;25.618;2023-02-22T16:04:18;15.70;60.60
68354;DHT22;55274;43.060;25.618;2023-02-22T16:06:45;15.60;61.20
68354;DHT22;55274;43.060;25.618;2023-02-22T16:09:14;15.40;61.90
68354;DHT22;55274;43.060;25.618;2023-02-22T16:11:43;15.30;61.70
68354;DHT22;55274;43.060;25.618;2023-02-22T16:19:51;15.00;61.40
68354;DHT22;55274;43.060;25.618;2023-02-22T16:30:33;14.30;62.80
68354;DHT22;55274;43.060;25.618;2023-02-22T16:33:01;14.20;63.30
68354;DHT22;55274;43.060;25.618;2023-02-22T16:35:30;14.10;63.90
68354;DHT22;55274;43.060;25.618;2023-02-22T16:38:08;14.00;64.10
68354;DHT22;55274;43.060;25.618;2023-02-22T16:40:52;13.80;63.80
68354;DHT22;55274;43.060;25.618;2023-02-22T16:43:22;13.70;65.00
68354;DHT22;55274;43.060;25.618;2023-02-22T16:45:48;13.50;64.80
68354;DHT22;55274;43.060;25.618;2023-02-22T16:48:20;13.40;65.60
68354;DHT22;55274;43.060;25.618;2023-02-22T16:50:47;13.30;66.50
68354;DHT22;55274;43.060;25.618;2023-02-22T16:53:15;13.20;67.90
68354;DHT22;55274;43.060;25.618;2023-02-22T16:55:48;13.20;67.60
68354;DHT22;55274;43.060;25.618;2023-02-22T16:58:16;13.00;68.30
68354;DHT22;55274;43.060;25.618;2023-02-22T17:00:43;12.90;67.50
68354;DHT22;55274;43.060;25.618;2023-02-22T17:03:14;12.80;67.50
68354;DHT22;55274;43.060;25.618;2023-02-22T17:05:40;12.60;67.90
68354;DHT22;55274;43.060;25.618;2023-02-22T17:08:06;12.60;68.20
68354;DHT22;55274;43.060;25.618;2023-02-22T17:10:32;12.50;68.30
68354;DHT22;55274;43.060;25.618;2023-02-22T17:12:59;12.30;68.30
68354;DHT22;55274;43.060;25.618;2023-02-22T17:15:28;12.20;69.00
68354;DHT22;55274;43.060;25.618;2023-02-22T17:17:55;12.20;69.60
68354;DHT22;55274;43.060;25.618;2023-02-22T17:20:22;12.10;70.10
68354;DHT22;55274;43.060;25.618;2023-02-22T17:23:08;12.10;70.40
68354;DHT22;55274;43.060;25.618;2023-02-22T17:25:44;11.90;70.30
68354;DHT22;55274;43.060;25.618;2023-02-22T17:28:10;11.80;70.60
68354;DHT22;55274;43.060;25.618;2023-02-22T17:30:37;11.70;72.00
68354;DHT22;55274;43.060;25.618;2023-02-22T17:33:05;11.70;72.00
68354;DHT22;55274;43.060;25.618;2023-02-22T17:35:33;11.60;72.10
68354;DHT22;55274;43.060;25.618;2023-02-22T17:38:00;11.40;72.10
68354;DHT22;55274;43.060;25.618;2023-02-22T17:40:27;11.30;72.30
68354;DHT22;55274;43.060;25.618;2023-02-22T17:42:53;11.20;72.70
68354;DHT22;55274;43.060;25.618;2023-02-22T17:45:21;11.20;72.70
68354;DHT22;55274;43.060;25.618;2023-02-22T17:47:49;11.10;72.80
68354;DHT22;55274;43.060;25.618;2023-02-22T17:50:15;11.00;73.30
68354;DHT22;55274;43.060;25.618;2023-02-22T17:52:42;10.90;73.20
68354;DHT22;55274;43.060;25.618;2023-02-22T17:55:08;10.80;73.70
68354;DHT22;55274;43.060;25.618;2023-02-22T17:57:34;10.70;74.20
68354;DHT22;55274;43.060;25.618;2023-02-22T18:00:03;10.70;74.40
68354;DHT22;55274;43.060;25.618;2023-02-22T18:02:38;10.70;74.90
68354;DHT22;55274;43.060;25.618;2023-02-22T18:05:04;10.60;75.10
68354;DHT22;55274;43.060;25.618;2023-02-22T18:07:30;10.40;74.90
68354;DHT22;55274;43.060;25.618;2023-02-22T18:09:56;10.30;75.40
68354;DHT22;55274;43.060;25.618;2023-02-22T18:12:22;10.20;75.90